sensor_id;sensor_type;location;lat;lon;timestamp;P1;durP1;ratioP1;P2;durP2;ratioP2
37781;SDS011;23621;50.878;4.584;2023-04-06T17:27:16;14.48;;;10.57;;
37781;SDS011;23621;50.878;4.584;2023-04-06T17:29:44;12.82;;;9.93;;
37781;SDS011;23621;50.878;4.584;2023-04-06T17:32:11;14.30;;;9.82;;
37781;SDS011;23621;50.878;4.584;2023-04-06T17:34:38;20.50;;;13.18;;
37781;SDS011;23621;50.878;4.584;2023-04-06T17:37:05;24.20;;;12.50;;
37781;SDS011;23621;50.878;4.584;2023-04-06T17:39:31;17.45;;;11.23;;
37781;SDS011;23621;50.878;4.584;2023-04-06T17:41:58;14.05;;;9.25;;
37781;SDS011;23621;50.878;4.584;2023-04-06T17:44:25;11.52;;;8.25;;
37781;SDS011;23621;50.878;4.584;2023-04-06T17:46:52;11.80;;;7.07;;
37781;SDS011;23621;50.878;4.584;2023-04-06T17:49:19;10.85;;;6.00;;
37781;SDS011;23621;50.878;4.584;2023-04-06T17:51:46;11.00;;;6.75;;
37781;SDS011;23621;50.878;4.584;2023-04-06T17:54:13;12.02;;;6.05;;
37781;SDS011;23621;50.878;4.584;2023-04-06T17:56:40;14.90;;;6.40;;
37781;SDS011;23621;50.878;4.584;2023-04-06T17:59:07;8.77;;;6.07;;
37781;SDS011;23621;50.878;4.584;2023-04-06T18:01:38;9.10;;;6.03;;
37781;SDS011;23621;50.878;4.584;2023-04-06T18:04:05;13.35;;;6.90;;
37781;SDS011;23621;50.878;4.584;2023-04-06T18:06:32;11.93;;;6.68;;
37781;SDS011;23621;50.878;4.584;2023-04-06T18:08:59;13.07;;;6.20;;
37781;SDS011;23621;50.878;4.584;2023-04-06T18:11:26;8.23;;;5.57;;
37781;SDS011;23621;50.878;4.584;2023-04-06T18:13:56;12.75;;;6.10;;
37781;SDS011;23621;50.878;4.584;2023-04-06T18:16:23;12.98;;;6.00;;
37781;SDS011;23621;50.878;4.584;2023-04-06T18:18:50;15.75;;;6.30;;
37781;SDS011;23621;50.878;4.584;2023-04-06T18:21:17;10.85;;;5.93;;
37781;SDS011;23621;50.878;4.584;2023-04-06T18:23:45;10.63;;;5.97;;
37781;SDS011;23621;50.878;4.584;2023-04-06T18:26:15;10.93;;;6.10;;
37781;SDS011;23621;50.878;4.584;2023-04-06T18:28:44;11.93;;;5.70;;
37781;SDS011;23621;50.878;4.584;2023-04-06T18:31:12;15.68;;;5.82;;
37781;SDS011;23621;50.878;4.584;2023-04-06T18:33:39;12.68;;;6.00;;
37781;SDS011;23621;50.878;4.584;2023-04-06T18:36:06;13.57;;;6.28;;
37781;SDS011;23621;50.878;4.584;2023-04-06T18:38:35;12.50;;;5.80;;
37781;SDS011;23621;50.878;4.584;2023-04-06T18:41:04;9.50;;;5.68;;
37781;SDS011;23621;50.878;4.584;2023-04-06T18:43:31;16.30;;;6.00;;
37781;SDS011;23621;50.878;4.584;2023-04-06T18:45:58;12.85;;;6.30;;
37781;SDS011;23621;50.878;4.584;2023-04-06T18:48:26;12.32;;;6.18;;
37781;SDS011;23621;50.878;4.584;2023-04-06T18:50:53;12.82;;;6.18;;
37781;SDS011;23621;50.878;4.584;2023-04-06T18:53:28;13.18;;;6.45;;
37781;SDS011;23621;50.878;4.584;2023-04-06T18:55:55;16.05;;;6.90;;
37781;SDS011;23621;50.878;4.584;2023-04-06T18:58:23;16.00;;;6.20;;
37781;SDS011;23621;50.878;4.584;2023-04-06T19:00:51;12.02;;;6.25;;
37781;SDS011;23621;50.878;4.584;2023-04-06T19:03:22;13.80;;;6.65;;
37781;SDS011;23621;50.878;4.584;2023-04-06T19:05:51;18.00;;;8.60;;
37781;SDS011;23621;50.878;4.584;2023-04-06T19:08:17;12.75;;;5.93;;
37781;SDS011;23621;50.878;4.584;2023-04-06T19:10:44;12.80;;;6.93;;
37781;SDS011;23621;50.878;4.584;2023-04-06T19:13:13;12.18;;;6.63;;
37781;SDS011;23621;50.878;4.584;2023-04-06T19:15:40;8.63;;;4.85;;
37781;SDS011;23621;50.878;4.584;2023-04-06T19:18:08;10.68;;;5.15;;
37781;SDS011;23621;50.878;4.584;2023-04-06T19:20:35;9.75;;;5.45;;
37781;SDS011;23621;50.878;4.584;2023-04-06T19:23:02;10.60;;;5.20;;
37781;SDS011;23621;50.878;4.584;2023-04-06T19:25:29;10.55;;;5.07;;
37781;SDS011;23621;50.878;4.584;2023-04-06T19:27:57;9.45;;;5.30;;
37781;SDS011;23621;50.878;4.584;2023-04-06T19:30:23;9.85;;;5.03;;
37781;SDS011;23621;50.878;4.584;2023-04-06T19:32:50;9.88;;;4.93;;
37781;SDS011;23621;50.878;4.584;2023-04-06T19:35:18;12.35;;;5.18;;
37781;SDS011;23621;50.878;4.584;2023-04-06T19:37:45;7.97;;;4.90;;
37781;SDS011;23621;50.878;4.584;2023-04-06T19:40:11;9.80;;;4.97;;
37781;SDS011;23621;50.878;4.584;2023-04-06T19:42:39;6.07;;;4.57;;
37781;SDS011;23621;50.878;4.584;2023-04-06T19:45:06;6.28;;;4.82;;
37781;SDS011;23621;50.878;4.584;2023-04-06T19:47:33;7.47;;;4.97;;
37781;SDS011;23621;50.878;4.584;2023-04-06T19:50:04;7.28;;;6.07;;
37781;SDS011;23621;50.878;4.584;2023-04-06T19:52:32;7.90;;;5.43;;
37781;SDS011;23621;50.878;4.584;2023-04-06T19:54:59;9.55;;;5.32;;
37781;SDS011;23621;50.878;4.584;2023-04-06T19:57:26;7.53;;;6.00;;
37781;SDS011;23621;50.878;4.584;2023-04-06T19:59:53;7.25;;;5.55;;
37781;SDS011;23621;50.878;4.584;2023-04-06T20:02:20;6.10;;;5.18;;
37781;SDS011;23621;50.878;4.584;2023-04-06T20:04:48;7.88;;;6.10;;
37781;SDS011;23621;50.878;4.584;2023-04-06T20:07:15;9.27;;;5.72;;
37781;SDS011;23621;50.878;4.584;2023-04-06T20:09:41;7.43;;;5.43;;
37781;SDS011;23621;50.878;4.584;2023-04-06T20:12:08;7.50;;;5.05;;
37781;SDS011;23621;50.878;4.584;2023-04-06T20:14:35;6.82;;;5.40;;
37781;SDS011;23621;50.878;4.584;2023-04-06T20:17:02;7.53;;;5.93;;
37781;SDS011;23621;50.878;4.584;2023-04-06T20:19:29;7.85;;;5.40;;
37781;SDS011;23621;50.878;4.584;2023-04-06T20:21:56;9.25;;;5.68;;
37781;SDS011;23621;50.878;4.584;2023-04-06T20:24:25;7.30;;;5.68;;
37781;SDS011;23621;50.878;4.584;2023-04-06T20:26:52;8.93;;;5.53;;
37781;SDS011;23621;50.878;4.584;2023-04-06T20:29:19;8.80;;;5.90;;
37781;SDS011;23621;50.878;4.584;2023-04-06T20:31:46;6.88;;;5.43;;
37781;SDS011;23621;50.878;4.584;2023-04-06T20:34:13;10.23;;;6.13;;
37781;SDS011;23621;50.878;4.584;2023-04-06T20:36:41;7.03;;;4.93;;
37781;SDS011;23621;50.878;4.584;2023-04-06T20:39:08;7.05;;;5.75;;
37781;SDS011;23621;50.878;4.584;2023-04-06T20:41:36;8.57;;;5.20;;
37781;SDS011;23621;50.878;4.584;2023-04-06T20:44:03;7.28;;;5.25;;
37781;SDS011;23621;50.878;4.584;2023-04-06T20:46:30;7.65;;;5.15;;
37781;SDS011;23621;50.878;4.584;2023-04-06T20:48:57;6.25;;;5.00;;
37781;SDS011;23621;50.878;4.584;2023-04-06T20:51:24;9.68;;;5.25;;
37781;SDS011;23621;50.878;4.584;2023-04-06T20:53:51;7.38;;;4.85;;
37781;SDS011;23621;50.878;4.584;2023-04-06T20:56:19;8.57;;;5.93;;
37781;SDS011;23621;50.878;4.584;2023-04-06T20:58:47;8.63;;;5.82;;
37781;SDS011;23621;50.878;4.584;2023-04-06T21:01:15;7.43;;;5.85;;
37781;SDS011;23621;50.878;4.584;2023-04-06T21:03:43;6.57;;;5.43;;
37781;SDS011;23621;50.878;4.584;2023-04-06T21:06:11;9.75;;;5.85;;
37781;SDS011;23621;50.878;4.584;2023-04-06T21:08:38;10.48;;;5.22;;
37781;SDS011;23621;50.878;4.584;2023-04-06T21:11:05;6.18;;;5.57;;
37781;SDS011;23621;50.878;4.584;2023-04-06T21:13:32;7.22;;;6.13;;
37781;SDS011;23621;50.878;4.584;2023-04-06T21:15:59;8.57;;;6.07;;
37781;SDS011;23621;50.878;4.584;2023-04-06T21:18:30;8.43;;;6.25;;
37781;SDS011;23621;50.878;4.584;2023-04-06T21:20:57;8.88;;;6.30;;
37781;SDS011;23621;50.878;4.584;2023-04-06T21:23:24;9.95;;;6.38;;
37781;SDS011;23621;50.878;4.584;2023-04-06T21:25:52;7.35;;;6.50;;
37781;SDS011;23621;50.878;4.584;2023-04-06T21:28:23;8.50;;;6.97;;
37781;SDS011;23621;50.878;4.584;2023-04-06T21:30:53;8.32;;;6.70;;
37781;SDS011;23621;50.878;4.584;2023-04-06T21:33:21;8.75;;;6.70;;
37781;SDS011;23621;50.878;4.584;2023-04-06T21:35:48;8.45;;;6.38;;
37781;SDS011;23621;50.878;4.584;2023-04-06T21:38:16;8.40;;;6.32;;
37781;SDS011;23621;50.878;4.584;2023-04-06T21:40:42;10.05;;;6.45;;
37781;SDS011;23621;50.878;4.584;2023-04-06T21:43:09;9.77;;;5.28;;
37781;SDS011;23621;50.878;4.584;2023-04-06T21:45:37;8.35;;;6.03;;
37781;SDS011;23621;50.878;4.584;2023-04-06T21:48:04;8.05;;;5.53;;
37781;SDS011;23621;50.878;4.584;2023-04-06T21:50:31;7.95;;;6.18;;
37781;SDS011;23621;50.878;4.584;2023-04-06T21:52:58;9.45;;;4.75;;
37781;SDS011;23621;50.878;4.584;2023-04-06T21:55:25;5.65;;;4.82;;
37781;SDS011;23621;50.878;4.584;2023-04-06T21:57:51;6.68;;;4.72;;
37781;SDS011;23621;50.878;4.584;2023-04-06T22:00:18;7.75;;;4.82;;
37781;SDS011;23621;50.878;4.584;2023-04-06T22:02:46;5.55;;;4.75;;
37781;SDS011;23621;50.878;4.584;2023-04-06T22:05:13;6.72;;;5.18;;
37781;SDS011;23621;50.878;4.584;2023-04-06T22:07:40;9.15;;;6.05;;
37781;SDS011;23621;50.878;4.584;2023-04-06T22:10:07;7.82;;;5.95;;
37781;SDS011;23621;50.878;4.584;2023-04-06T22:12:34;9.65;;;6.82;;
37781;SDS011;23621;50.878;4.584;2023-04-06T22:15:02;9.98;;;6.68;;
37781;SDS011;23621;50.878;4.584;2023-04-06T22:17:29;10.75;;;8.10;;
37781;SDS011;23621;50.878;4.584;2023-04-06T22:19:56;11.73;;;7.47;;
37781;SDS011;23621;50.878;4.584;2023-04-06T22:22:23;9.82;;;7.35;;
37781;SDS011;23621;50.878;4.584;2023-04-06T22:24:51;11.45;;;7.57;;
37781;SDS011;23621;50.878;4.584;2023-04-06T22:27:18;12.68;;;6.40;;
37781;SDS011;23621;50.878;4.584;2023-04-06T22:29:44;11.40;;;7.28;;
37781;SDS011;23621;50.878;4.584;2023-04-06T22:32:11;8.40;;;7.22;;
37781;SDS011;23621;50.878;4.584;2023-04-06T22:34:38;13.18;;;7.32;;
37781;SDS011;23621;50.878;4.584;2023-04-06T22:37:05;11.00;;;7.72;;
37781;SDS011;23621;50.878;4.584;2023-04-06T22:39:32;9.40;;;7.00;;
37781;SDS011;23621;50.878;4.584;2023-04-06T22:41:59;8.77;;;6.93;;
37781;SDS011;23621;50.878;4.584;2023-04-06T22:44:26;12.45;;;6.90;;
37781;SDS011;23621;50.878;4.584;2023-04-06T22:46:53;8.07;;;6.05;;
37781;SDS011;23621;50.878;4.584;2023-04-06T22:49:20;9.63;;;5.72;;
37781;SDS011;23621;50.878;4.584;2023-04-06T22:51:47;8.50;;;5.40;;
37781;SDS011;23621;50.878;4.584;2023-04-06T22:54:14;8.52;;;5.13;;
37781;SDS011;23621;50.878;4.584;2023-04-06T22:56:41;5.13;;;4.45;;
37781;SDS011;23621;50.878;4.584;2023-04-06T22:59:08;7.55;;;5.03;;
37781;SDS011;23621;50.878;4.584;2023-04-06T23:01:35;7.13;;;4.70;;
37781;SDS011;23621;50.878;4.584;2023-04-06T23:04:02;7.03;;;4.45;;
37781;SDS011;23621;50.878;4.584;2023-04-06T23:06:29;7.20;;;4.35;;
37781;SDS011;23621;50.878;4.584;2023-04-06T23:08:56;7.63;;;5.32;;
37781;SDS011;23621;50.878;4.584;2023-04-06T23:11:23;7.70;;;4.65;;
37781;SDS011;23621;50.878;4.584;2023-04-06T23:13:50;6.20;;;4.78;;
37781;SDS011;23621;50.878;4.584;2023-04-06T23:16:17;7.50;;;4.55;;
37781;SDS011;23621;50.878;4.584;2023-04-06T23:18:44;6.55;;;4.65;;
37781;SDS011;23621;50.878;4.584;2023-04-06T23:21:11;6.45;;;4.88;;
37781;SDS011;23621;50.878;4.584;2023-04-06T23:23:38;7.70;;;5.13;;
37781;SDS011;23621;50.878;4.584;2023-04-06T23:26:05;9.45;;;5.57;;
37781;SDS011;23621;50.878;4.584;2023-04-06T23:28:32;9.48;;;5.20;;
37781;SDS011;23621;50.878;4.584;2023-04-06T23:30:59;10.23;;;5.10;;
37781;SDS011;23621;50.878;4.584;2023-04-06T23:33:26;7.55;;;5.13;;
37781;SDS011;23621;50.878;4.584;2023-04-06T23:35:54;8.80;;;5.35;;
37781;SDS011;23621;50.878;4.584;2023-04-06T23:38:21;7.18;;;5.40;;
37781;SDS011;23621;50.878;4.584;2023-04-06T23:40:48;8.57;;;5.72;;
37781;SDS011;23621;50.878;4.584;2023-04-06T23:43:15;12.63;;;6.57;;
37781;SDS011;23621;50.878;4.584;2023-04-06T23:45:42;10.50;;;6.35;;
37781;SDS011;23621;50.878;4.584;2023-04-06T23:48:09;10.75;;;6.75;;
37781;SDS011;23621;50.878;4.584;2023-04-06T23:50:37;13.18;;;7.10;;
37781;SDS011;23621;50.878;4.584;2023-04-06T23:53:04;15.02;;;7.80;;
37781;SDS011;23621;50.878;4.584;2023-04-06T23:55:31;14.70;;;7.40;;
37781;SDS011;23621;50.878;4.584;2023-04-06T23:57:58;11.40;;;7.70;;
